Terminal Aerodrome Forecast
Issued by NWS

Home | Current Version | Previous Version | Text Only | Print | Product List | Glossary Off
Versions: 1 2 3 4 5 6 7 8 9 10 11 12 13 14 15 16 17

000
FTUS43 KGRB 102338
TAFAUW
TAF
KAUW 102338Z 1100/1124 VRB03KT P6SM SCT050 OVC100
     FM110200 VRB03KT P6SM -SN OVC035
     FM110400 VRB03KT 5SM -SN OVC015
      TEMPO 1104/1108 2SM -SN OVC015
     FM110800 09007KT 1SM -SN OVC010
      TEMPO 1113/1117 3/4SM -SN OVC007
     FM111700 12006KT 2SM -SN BR OVC010=

USA.gov is the U.S. government's official web portal to all federal, state and local government web resources and services.